Time;durP1;ratioP1;P1;durP2;ratioP2;P2;SDS_P1;SDS_P2;PMS_P1;PMS_P2;Temp;Humidity;BMP_temperature;BMP_pressure;BME280_temperature;BME280_humidity;BME280_pressure;Samples;Min_cycle;Max_cycle;Signal;HPM_P1;HPM_P2
2022/07/02 00:01:26;;;;;;;0.70;0.70;;;27.50;54.60;;;;;;5045224;28;20345;-62
2022/07/02 00:03:56;;;;;;;0.50;0.50;;;27.50;54.60;;;;;;5045207;28;20304;-62
2022/07/02 00:06:30;;;;;;;0.57;0.57;;;27.50;54.60;;;;;;5044754;28;20168;-62
2022/07/02 00:09:00;;;;;;;0.55;0.55;;;27.50;54.70;;;;;;5044714;28;20079;-62
2022/07/02 00:11:27;;;;;;;0.55;0.55;;;27.50;54.70;;;;;;5045071;28;20505;-62
2022/07/02 00:13:55;;;;;;;0.60;0.60;;;27.50;54.70;;;;;;5045747;28;20493;-61
2022/07/02 00:16:22;;;;;;;0.77;0.55;;;27.50;54.70;;;;;;5045741;28;20044;-62
2022/07/02 00:18:50;;;;;;;0.50;0.50;;;27.50;54.70;;;;;;5045988;28;20411;-62
2022/07/02 00:21:18;;;;;;;0.70;0.70;;;27.50;54.70;;;;;;5045297;28;20541;-62
2022/07/02 00:23:47;;;;;;;;;;;27.50;54.70;;;;;;5045806;28;20076;-62
2022/07/02 00:26:27;;;;;;;0.30;0.30;;;27.50;54.70;;;;;;5045692;28;20389;-64
2022/07/02 00:29:02;;;;;;;;;;;27.50;54.70;;;;;;5045746;28;20049;-62
2022/07/02 00:31:29;;;;;;;2.75;0.50;;;27.50;54.70;;;;;;5046291;28;20248;-61
2022/07/02 00:33:57;;;;;;;0.70;0.70;;;27.50;54.70;;;;;;5045546;28;20099;-62
2022/07/02 00:36:26;;;;;;;0.68;0.60;;;27.50;54.70;;;;;;5043952;28;20132;-62
2022/07/02 00:38:53;;;;;;;1.00;0.68;;;27.50;54.70;;;;;;5044349;28;20078;-62
2022/07/02 00:41:21;;;;;;;0.70;0.70;;;27.50;54.70;;;;;;5044557;28;20049;-62
2022/07/02 00:43:50;;;;;;;1.58;0.50;;;27.50;54.70;;;;;;5044665;28;20102;-61
2022/07/02 00:46:18;;;;;;;0.35;0.35;;;27.40;54.70;;;;;;5044419;28;20128;-62
2022/07/02 00:48:45;;;;;;;0.60;0.60;;;27.50;54.70;;;;;;5044919;28;20103;-62
2022/07/02 00:51:12;;;;;;;0.35;0.35;;;27.40;54.70;;;;;;5044560;28;20575;-62
2022/07/02 00:53:40;;;;;;;0.40;0.40;;;27.50;54.70;;;;;;5044544;28;21797;-62
2022/07/02 00:56:07;;;;;;;0.50;0.50;;;27.40;54.70;;;;;;5044354;28;20099;-61
2022/07/02 00:58:34;;;;;;;0.40;0.40;;;27.50;54.70;;;;;;5044088;28;20355;-62
2022/07/02 01:01:01;;;;;;;0.45;0.45;;;27.40;54.70;;;;;;5045085;28;20300;-62
2022/07/02 01:03:30;;;;;;;0.32;0.32;;;27.50;54.80;;;;;;5044060;28;20044;-62
2022/07/02 01:05:57;;;;;;;1.13;0.52;;;27.40;54.70;;;;;;5044802;28;20049;-62
2022/07/02 01:11:13;;;;;;;0.45;0.45;;;27.40;54.70;;;;;;5042290;28;20068;-61
2022/07/02 01:13:40;;;;;;;0.43;0.43;;;27.40;54.80;;;;;;5045054;28;20044;-61
2022/07/02 01:16:08;;;;;;;0.50;0.50;;;27.40;55.30;;;;;;5044827;28;20426;-62
2022/07/02 01:18:37;;;;;;;0.40;0.40;;;27.40;54.80;;;;;;5044737;28;20095;-62
2022/07/02 01:21:04;;;;;;;0.40;0.40;;;27.40;54.90;;;;;;5044233;28;20082;-61
2022/07/02 01:23:31;;;;;;;0.40;0.40;;;27.40;54.90;;;;;;5044707;28;20664;-62
2022/07/02 01:25:59;;;;;;;0.30;0.30;;;27.40;54.90;;;;;;5044332;28;20517;-62
2022/07/02 01:28:26;;;;;;;0.60;0.60;;;27.40;54.90;;;;;;5043658;28;20414;-62
2022/07/02 01:30:53;;;;;;;0.30;0.30;;;27.40;54.90;;;;;;5046308;28;20076;-62
2022/07/02 01:33:20;;;;;;;0.47;0.47;;;27.40;54.90;;;;;;5048057;28;20099;-62
2022/07/02 01:35:48;;;;;;;0.32;0.32;;;27.40;54.90;;;;;;5047860;28;20076;-62
2022/07/02 01:38:15;;;;;;;0.47;0.47;;;27.40;54.90;;;;;;5047895;28;20048;-62
2022/07/02 01:40:42;;;;;;;0.30;0.30;;;27.40;54.90;;;;;;5048220;28;20469;-62
2022/07/02 01:43:09;;;;;;;0.40;0.40;;;27.40;54.90;;;;;;5047439;28;20551;-62
2022/07/02 01:45:36;;;;;;;0.45;0.35;;;27.40;54.90;;;;;;5047238;28;20485;-61
2022/07/02 01:48:04;;;;;;;0.32;0.32;;;27.40;54.90;;;;;;5048084;28;20455;-61
2022/07/02 01:50:35;;;;;;;0.30;0.30;;;27.40;54.90;;;;;;5047232;28;20057;-62
2022/07/02 01:53:02;;;;;;;0.30;0.30;;;27.40;54.90;;;;;;5047370;28;20296;-61
2022/07/02 01:55:29;;;;;;;0.20;0.20;;;27.40;54.90;;;;;;5047824;28;20102;-62
2022/07/02 01:57:57;;;;;;;0.32;0.32;;;27.40;54.80;;;;;;5047090;28;20517;-62
2022/07/02 02:00:24;;;;;;;0.40;0.40;;;27.30;55.30;;;;;;5047555;28;20110;-62
2022/07/02 02:02:52;;;;;;;0.20;0.20;;;27.40;54.80;;;;;;5047309;28;20558;-62
2022/07/02 02:05:19;;;;;;;0.40;0.40;;;27.40;54.80;;;;;;5047409;28;20281;-62
2022/07/02 02:07:46;;;;;;;0.35;0.30;;;27.40;54.70;;;;;;5047711;28;20045;-62
2022/07/02 02:10:14;;;;;;;0.38;0.38;;;27.30;54.70;;;;;;5047111;28;20041;-62
2022/07/02 02:12:41;;;;;;;0.43;0.30;;;27.40;54.70;;;;;;5048189;28;20091;-62
2022/07/02 02:15:09;;;;;;;0.38;0.38;;;27.30;54.60;;;;;;5046811;28;20045;-62
2022/07/02 02:17:36;;;;;;;0.35;0.35;;;27.40;54.70;;;;;;5046667;28;20079;-62
2022/07/02 02:20:03;;;;;;;0.40;0.40;;;27.40;54.70;;;;;;5046970;28;20545;-62
2022/07/02 02:22:30;;;;;;;0.20;0.20;;;27.30;54.60;;;;;;5046705;28;20053;-62
2022/07/02 02:24:57;;;;;;;0.82;0.40;;;27.30;54.60;;;;;;5045725;28;20128;-62
2022/07/02 02:27:24;;;;;;;2.38;0.40;;;27.30;55.20;;;;;;5046845;28;20136;-62
2022/07/02 02:29:52;;;;;;;0.43;0.40;;;27.30;54.70;;;;;;5046891;28;20072;-62
2022/07/02 02:32:19;;;;;;;0.22;0.22;;;27.30;54.60;;;;;;5047320;28;20049;-62
2022/07/02 02:34:46;;;;;;;0.40;0.30;;;27.30;54.60;;;;;;5046231;28;20079;-62
2022/07/02 02:37:13;;;;;;;0.52;0.30;;;27.30;54.60;;;;;;5047300;28;20140;-62
2022/07/02 02:39:41;;;;;;;0.30;0.30;;;27.30;54.60;;;;;;5046536;28;20077;-62
2022/07/02 02:42:08;;;;;;;1.58;0.32;;;27.30;54.70;;;;;;5046111;28;20072;-62
2022/07/02 02:44:35;;;;;;;0.38;0.38;;;27.30;54.70;;;;;;5047052;28;20140;-62
2022/07/02 02:47:02;;;;;;;0.20;0.20;;;27.30;54.70;;;;;;5046248;28;20102;-62
2022/07/02 02:49:30;;;;;;;0.25;0.25;;;27.30;54.70;;;;;;5046307;28;20084;-62
2022/07/02 02:51:57;;;;;;;0.20;0.20;;;27.30;54.80;;;;;;5046443;28;20071;-62
2022/07/02 02:54:24;;;;;;;0.30;0.30;;;27.30;54.80;;;;;;5046437;28;20489;-62
2022/07/02 02:56:52;;;;;;;0.20;0.20;;;27.20;54.70;;;;;;5046561;28;20053;-62
2022/07/02 02:59:19;;;;;;;0.63;0.20;;;27.20;54.70;;;;;;5046269;28;20469;-62
2022/07/02 03:01:46;;;;;;;0.20;0.20;;;27.20;54.70;;;;;;5047050;28;20446;-62
2022/07/02 03:04:13;;;;;;;0.40;0.40;;;27.20;54.70;;;;;;5045824;28;20076;-61
2022/07/02 03:06:40;;;;;;;0.55;0.30;;;27.20;54.60;;;;;;5046845;28;20501;-63
2022/07/02 03:09:07;;;;;;;0.10;0.10;;;27.20;54.60;;;;;;5046301;28;20390;-62
2022/07/02 03:11:34;;;;;;;0.20;0.20;;;27.20;54.60;;;;;;5046245;28;20044;-61
2022/07/02 03:14:01;;;;;;;0.22;0.22;;;27.20;54.60;;;;;;5046367;28;20132;-62
2022/07/02 03:16:28;;;;;;;0.28;0.28;;;27.20;54.50;;;;;;5045017;28;20482;-61
2022/07/02 03:18:56;;;;;;;0.30;0.13;;;27.20;54.40;;;;;;5045815;28;20052;-61
2022/07/02 03:21:23;;;;;;;0.28;0.28;;;27.20;54.40;;;;;;5044258;28;20049;-61
2022/07/02 03:23:50;;;;;;;0.20;0.20;;;27.20;54.40;;;;;;5044921;28;20144;-61
2022/07/02 03:26:17;;;;;;;1.95;0.30;;;27.20;54.30;;;;;;5045542;28;20066;-64
2022/07/02 03:28:44;;;;;;;0.30;0.30;;;27.20;54.30;;;;;;5045266;28;20080;-64
2022/07/02 03:31:12;;;;;;;0.20;0.20;;;27.20;54.20;;;;;;5045943;28;20756;-61
2022/07/02 03:33:39;;;;;;;0.20;0.20;;;27.20;54.20;;;;;;5046126;28;20045;-61
2022/07/02 03:36:07;;;;;;;0.30;0.30;;;27.30;54.20;;;;;;5046199;28;20076;-61
2022/07/02 03:38:34;;;;;;;0.10;0.10;;;27.30;54.20;;;;;;5045613;28;20073;-62
2022/07/02 03:41:02;;;;;;;0.30;0.30;;;27.20;54.10;;;;;;5044765;28;20052;-61
2022/07/02 03:43:29;;;;;;;0.35;0.35;;;27.30;54.10;;;;;;5045481;28;20049;-61
2022/07/02 03:45:56;;;;;;;0.30;0.30;;;27.30;54.00;;;;;;5045385;28;20148;-61
2022/07/02 03:48:24;;;;;;;0.20;0.20;;;27.30;54.00;;;;;;5045424;28;20072;-61
2022/07/02 03:50:51;;;;;;;1.98;0.32;;;27.30;53.90;;;;;;5044428;28;20072;-61
2022/07/02 03:53:18;;;;;;;0.20;0.20;;;27.30;54.50;;;;;;5045286;28;20357;-61
2022/07/02 03:55:46;;;;;;;0.30;0.30;;;27.30;53.80;;;;;;5045408;28;20037;-63
2022/07/02 03:58:13;;;;;;;0.30;0.30;;;27.40;53.80;;;;;;5045137;28;20148;-63
2022/07/02 04:00:40;;;;;;;0.25;0.20;;;27.40;53.80;;;;;;5043350;28;20429;-64
2022/07/02 04:03:07;;;;;;;0.30;0.30;;;27.40;53.80;;;;;;5045848;28;20103;-63
2022/07/02 04:05:34;;;;;;;0.20;0.20;;;27.40;53.80;;;;;;5045407;28;20048;-63
2022/07/02 04:08:01;;;;;;;0.20;0.20;;;27.40;53.60;;;;;;5045315;28;20057;-63
2022/07/02 04:10:28;;;;;;;0.30;0.30;;;27.40;53.60;;;;;;5044618;28;20091;-61
2022/07/02 04:12:55;;;;;;;0.20;0.20;;;27.40;53.60;;;;;;5045316;28;20297;-62
2022/07/02 04:15:23;;;;;;;0.20;0.20;;;27.40;53.50;;;;;;5044858;28;20132;-61
2022/07/02 04:17:50;;;;;;;0.35;0.20;;;27.40;53.50;;;;;;5045337;28;20256;-62
2022/07/02 04:20:17;;;;;;;0.20;0.20;;;27.50;53.50;;;;;;5045227;28;20102;-61
2022/07/02 04:22:45;;;;;;;0.20;0.20;;;27.50;53.50;;;;;;5044588;28;20552;-62
2022/07/02 04:25:12;;;;;;;0.28;0.15;;;27.50;53.40;;;;;;5044751;28;20434;-63
2022/07/02 04:27:39;;;;;;;0.20;0.20;;;27.50;53.30;;;;;;5045378;28;20049;-64
2022/07/02 04:30:07;;;;;;;0.40;0.30;;;27.60;53.30;;;;;;5044640;28;20081;-64
2022/07/02 04:32:35;;;;;;;0.15;0.15;;;27.50;53.20;;;;;;5045076;28;20049;-61
2022/07/02 04:35:03;;;;;;;0.20;0.20;;;27.60;53.20;;;;;;5044678;28;20138;-61
2022/07/02 04:37:30;;;;;;;0.17;0.17;;;27.60;53.20;;;;;;5045106;28;20126;-61
2022/07/02 04:39:57;;;;;;;0.10;0.10;;;27.60;53.00;;;;;;5045471;28;20045;-63
2022/07/02 04:42:24;;;;;;;0.30;0.20;;;27.60;53.00;;;;;;5044509;28;20103;-64
2022/07/02 04:44:51;;;;;;;0.20;0.20;;;27.60;52.90;;;;;;5044361;28;20148;-61
2022/07/02 04:47:18;;;;;;;0.10;0.10;;;27.70;52.90;;;;;;5044164;28;20575;-61
2022/07/02 04:49:46;;;;;;;0.25;0.10;;;27.70;52.80;;;;;;5044612;28;20045;-61
2022/07/02 04:52:13;;;;;;;0.17;0.13;;;27.70;52.70;;;;;;5045422;28;20115;-61
2022/07/02 04:54:40;;;;;;;0.10;0.10;;;27.70;52.70;;;;;;5044734;28;20543;-61
2022/07/02 04:57:08;;;;;;;1.67;0.20;;;27.80;52.70;;;;;;5044706;28;20464;-64
2022/07/02 04:59:35;;;;;;;0.35;0.30;;;27.80;52.60;;;;;;5044457;28;20140;-61
2022/07/02 05:02:04;;;;;;;0.10;0.10;;;27.80;52.50;;;;;;5044585;28;20041;-61
2022/07/02 05:04:32;;;;;;;0.60;0.25;;;27.80;52.40;;;;;;5044420;28;20044;-61
2022/07/02 05:06:59;;;;;;;0.10;0.10;;;27.80;52.40;;;;;;5047679;28;20059;-61
2022/07/02 05:09:26;;;;;;;0.25;0.20;;;27.80;52.90;;;;;;5048518;28;20300;-61
2022/07/02 05:11:53;;;;;;;0.20;0.20;;;27.70;52.10;;;;;;5048449;28;20052;-61
2022/07/02 05:14:21;;;;;;;0.20;0.20;;;27.60;52.10;;;;;;5048177;28;20053;-61
2022/07/02 05:16:48;;;;;;;0.10;0.10;;;27.50;52.20;;;;;;5048138;28;20116;-61
2022/07/02 05:19:15;;;;;;;0.10;0.10;;;27.30;52.30;;;;;;5048169;28;20663;-61
2022/07/02 05:21:43;;;;;;;0.15;0.15;;;27.10;52.60;;;;;;5048410;28;20045;-61
2022/07/02 05:24:11;;;;;;;0.35;0.10;;;26.90;52.80;;;;;;5048623;28;20045;-61
2022/07/02 05:26:38;;;;;;;0.10;0.10;;;26.80;53.00;;;;;;5048366;28;20103;-61
2022/07/02 05:29:05;;;;;;;0.20;0.20;;;26.60;53.10;;;;;;5048544;28;20498;-62
2022/07/02 05:31:32;;;;;;;0.30;0.20;;;26.40;53.10;;;;;;5048340;28;20107;-61
2022/07/02 05:33:59;;;;;;;0.10;0.10;;;26.20;53.00;;;;;;5047791;28;20379;-61
2022/07/02 05:36:26;;;;;;;0.10;0.10;;;25.90;52.90;;;;;;5047836;28;20107;-61
2022/07/02 05:38:54;;;;;;;0.10;0.10;;;25.70;52.90;;;;;;5047739;28;20049;-61
2022/07/02 05:41:21;;;;;;;0.10;0.10;;;25.50;52.90;;;;;;5047935;28;20051;-63
2022/07/02 05:43:48;;;;;;;0.30;0.30;;;25.20;53.00;;;;;;5047677;28;20077;-61
2022/07/02 05:46:15;;;;;;;0.10;0.10;;;25.00;53.00;;;;;;5048072;28;20151;-61
2022/07/02 05:48:42;;;;;;;0.10;0.10;;;24.80;52.90;;;;;;5047319;28;20045;-61
2022/07/02 05:51:09;;;;;;;0.17;0.17;;;24.60;52.90;;;;;;5047803;28;20156;-61
2022/07/02 05:53:36;;;;;;;0.17;0.15;;;24.50;53.20;;;;;;5047162;28;20496;-61
2022/07/02 05:56:04;;;;;;;0.10;0.10;;;24.30;52.90;;;;;;5047890;28;20746;-63
2022/07/02 05:58:31;;;;;;;0.40;0.20;;;24.10;53.30;;;;;;5046246;28;20057;-63
2022/07/02 06:00:58;;;;;;;0.30;0.30;;;24.00;53.40;;;;;;5047863;28;20110;-61
2022/07/02 06:03:25;;;;;;;0.20;0.20;;;23.90;53.40;;;;;;5047609;28;20101;-60
2022/07/02 06:08:40;;;;;;;0.20;0.20;;;23.70;53.80;;;;;;5047808;28;20079;-60
2022/07/02 06:11:07;;;;;;;0.30;0.30;;;23.60;54.10;;;;;;5047004;28;20092;-60
2022/07/02 06:13:34;;;;;;;0.15;0.15;;;23.50;54.20;;;;;;5047212;28;20441;-60
2022/07/02 06:16:01;;;;;;;0.30;0.30;;;23.40;54.40;;;;;;5047933;28;20127;-60
2022/07/02 06:18:29;;;;;;;0.20;0.20;;;23.30;54.60;;;;;;5045744;28;20128;-61
2022/07/02 06:20:56;;;;;;;0.52;0.20;;;23.30;54.80;;;;;;5047644;28;20517;-60
2022/07/02 06:23:23;;;;;;;0.10;0.10;;;23.30;55.00;;;;;;5046363;28;20489;-61
2022/07/02 06:25:50;;;;;;;0.10;0.10;;;23.20;55.20;;;;;;5047017;28;20052;-60
2022/07/02 06:28:17;;;;;;;0.32;0.30;;;23.30;55.50;;;;;;5046673;28;20092;-61
2022/07/02 06:30:45;;;;;;;0.35;0.30;;;23.20;55.70;;;;;;5047374;28;20049;-61
2022/07/02 06:33:12;;;;;;;0.20;0.20;;;23.20;56.00;;;;;;5046822;28;20056;-60
2022/07/02 06:35:40;;;;;;;0.30;0.30;;;23.20;56.10;;;;;;5046899;28;20081;-61
2022/07/02 06:38:07;;;;;;;0.22;0.22;;;23.30;56.20;;;;;;5045476;28;20395;-61
2022/07/02 06:40:35;;;;;;;0.40;0.40;;;23.30;56.40;;;;;;5046472;28;20041;-61
2022/07/02 06:43:02;;;;;;;0.20;0.20;;;23.30;56.60;;;;;;5046839;28;20138;-60
2022/07/02 06:45:29;;;;;;;0.22;0.22;;;23.30;56.70;;;;;;5046513;28;20056;-61
2022/07/02 06:47:56;;;;;;;0.20;0.20;;;23.30;56.70;;;;;;5046264;28;20325;-61
2022/07/02 06:50:23;;;;;;;0.20;0.20;;;23.30;56.70;;;;;;5046424;28;20683;-61
2022/07/02 06:52:50;;;;;;;0.10;0.10;;;23.30;56.70;;;;;;5046350;28;20072;-60
2022/07/02 06:55:20;;;;;;;0.20;0.20;;;23.30;56.70;;;;;;5045490;28;20041;-64
2022/07/02 06:57:49;;;;;;;0.20;0.20;;;23.30;56.60;;;;;;5046179;28;20049;-61
2022/07/02 07:00:16;;;;;;;0.20;0.20;;;23.30;56.70;;;;;;5046388;28;20052;-61
2022/07/02 07:02:45;;;;;;;0.10;0.10;;;23.30;56.80;;;;;;5046502;28;20073;-61
2022/07/02 07:05:16;;;;;;;0.20;0.20;;;23.30;56.70;;;;;;5046135;28;20602;-61
2022/07/02 07:07:43;;;;;;;0.20;0.20;;;23.30;56.70;;;;;;5046274;28;20048;-61
2022/07/02 07:10:10;;;;;;;0.20;0.20;;;23.30;56.80;;;;;;5046335;28;20490;-61
2022/07/02 07:12:38;;;;;;;0.30;0.30;;;23.30;56.80;;;;;;5046272;28;20095;-61
2022/07/02 07:15:07;;;;;;;0.13;0.13;;;23.30;56.80;;;;;;5045803;28;20091;-61
2022/07/02 07:17:35;;;;;;;0.38;0.38;;;23.30;56.80;;;;;;5045617;28;20064;-61
2022/07/02 07:20:02;;;;;;;0.30;0.20;;;23.30;56.80;;;;;;5046518;28;20405;-61
2022/07/02 07:22:29;;;;;;;0.30;0.30;;;23.30;56.90;;;;;;5045469;28;20536;-61
2022/07/02 07:24:56;;;;;;;0.28;0.28;;;23.30;56.90;;;;;;5045941;28;20072;-61
2022/07/02 07:27:23;;;;;;;0.17;0.17;;;23.30;57.00;;;;;;5046378;28;20045;-61
2022/07/02 07:29:51;;;;;;;0.30;0.30;;;23.30;56.90;;;;;;5045363;28;20053;-61
2022/07/02 07:32:18;;;;;;;0.20;0.20;;;23.30;57.00;;;;;;5046643;28;20044;-61
2022/07/02 07:34:45;;;;;;;0.20;0.20;;;23.30;57.00;;;;;;5043441;28;20080;-61
2022/07/02 07:37:13;;;;;;;0.20;0.20;;;23.30;57.00;;;;;;5045847;28;20521;-61
2022/07/02 07:39:40;;;;;;;0.20;0.20;;;23.30;57.10;;;;;;5044447;28;20084;-61
2022/07/02 07:42:07;;;;;;;0.30;0.30;;;23.30;57.30;;;;;;5045870;28;20150;-61
2022/07/02 07:44:35;;;;;;;0.20;0.17;;;23.30;57.40;;;;;;5045540;28;20106;-61
2022/07/02 07:47:02;;;;;;;0.73;0.28;;;23.30;57.50;;;;;;5045452;28;20052;-61
2022/07/02 07:49:29;;;;;;;0.30;0.30;;;23.30;57.60;;;;;;5045282;28;20048;-61
2022/07/02 07:51:56;;;;;;;0.20;0.20;;;23.30;57.70;;;;;;5045743;28;20119;-61
2022/07/02 07:54:23;;;;;;;0.73;0.22;;;23.30;57.60;;;;;;5045194;28;20071;-61
2022/07/02 07:56:50;;;;;;;0.30;0.30;;;23.30;57.50;;;;;;5045663;28;20478;-62
2022/07/02 07:59:18;;;;;;;0.20;0.20;;;23.40;57.40;;;;;;5045154;28;20053;-61
2022/07/02 08:01:45;;;;;;;0.22;0.22;;;23.30;57.30;;;;;;5045378;28;20512;-62
2022/07/02 08:04:12;;;;;;;0.25;0.25;;;23.30;57.30;;;;;;5044669;28;20076;-62
2022/07/02 08:06:39;;;;;;;0.22;0.22;;;23.30;57.20;;;;;;5045513;28;20057;-62
2022/07/02 08:09:06;;;;;;;0.20;0.20;;;23.30;57.20;;;;;;5045249;28;20080;-61
2022/07/02 08:11:33;;;;;;;0.30;0.30;;;23.30;57.30;;;;;;5044825;28;20049;-62
2022/07/02 08:14:01;;;;;;;0.30;0.30;;;23.30;57.30;;;;;;5045226;28;20053;-62
2022/07/02 08:16:28;;;;;;;0.20;0.20;;;23.30;57.30;;;;;;5045399;28;20045;-62
2022/07/02 08:18:55;;;;;;;0.28;0.10;;;23.30;57.30;;;;;;5044723;28;20516;-62
2022/07/02 08:21:22;;;;;;;0.30;0.30;;;23.30;57.30;;;;;;5045124;28;20065;-61
2022/07/02 08:23:50;;;;;;;0.22;0.22;;;23.30;57.20;;;;;;5044644;28;20080;-62
2022/07/02 08:26:17;;;;;;;0.20;0.20;;;23.30;57.20;;;;;;5045725;28;20049;-61
2022/07/02 08:28:44;;;;;;;0.30;0.30;;;23.30;57.30;;;;;;5045377;28;20080;-62
2022/07/02 08:31:11;;;;;;;0.30;0.30;;;23.30;57.20;;;;;;5045067;28;20482;-62
2022/07/02 08:33:38;;;;;;;0.30;0.30;;;23.30;57.30;;;;;;5045462;28;20053;-62
2022/07/02 08:36:06;;;;;;;0.20;0.20;;;23.30;57.30;;;;;;5043052;28;20053;-62
2022/07/02 08:38:33;;;;;;;0.25;0.20;;;23.30;57.40;;;;;;5045042;28;20061;-62
2022/07/02 08:41:02;;;;;;;0.10;0.10;;;23.30;57.40;;;;;;5046460;28;20072;-62
2022/07/02 08:43:31;;;;;;;0.47;0.47;;;23.30;57.30;;;;;;5049131;28;20107;-62
2022/07/02 08:46:04;;;;;;;0.10;0.10;;;23.30;57.40;;;;;;5049152;28;20131;-62
2022/07/02 08:48:33;;;;;;;0.22;0.22;;;23.30;57.40;;;;;;5048442;28;20168;-61
2022/07/02 08:51:01;;;;;;;0.17;0.17;;;23.30;57.50;;;;;;5049021;28;20725;-62
2022/07/02 08:53:28;;;;;;;0.50;0.50;;;23.30;58.00;;;;;;5048984;28;20053;-62
2022/07/02 08:55:57;;;;;;;0.30;0.30;;;23.30;57.40;;;;;;5049323;28;20337;-62
2022/07/02 08:58:25;;;;;;;0.22;0.22;;;23.30;57.50;;;;;;5048708;28;20143;-62
2022/07/02 09:00:53;;;;;;;0.20;0.20;;;23.30;57.60;;;;;;5048813;28;20544;-62
2022/07/02 09:03:21;;;;;;;0.35;0.35;;;23.30;57.60;;;;;;5049483;28;20132;-61
2022/07/02 09:05:51;;;;;;;0.10;0.10;;;23.30;57.60;;;;;;5048379;28;20083;-62
2022/07/02 09:08:22;;;;;;;0.32;0.32;;;23.30;57.50;;;;;;5048773;28;20098;-62
2022/07/02 09:10:52;;;;;;;0.30;0.30;;;23.40;57.50;;;;;;5047850;28;20056;-62
2022/07/02 09:13:19;;;;;;;0.30;0.30;;;23.30;57.50;;;;;;5048162;28;20084;-62
2022/07/02 09:15:47;;;;;;;0.20;0.20;;;23.40;58.10;;;;;;5048458;28;20691;-62
2022/07/02 09:18:14;;;;;;;0.40;0.40;;;23.40;57.50;;;;;;5048499;28;20103;-62
2022/07/02 09:20:42;;;;;;;0.40;0.40;;;23.40;57.40;;;;;;5048763;28;20102;-62
2022/07/02 09:23:13;;;;;;;0.70;0.45;;;23.40;57.40;;;;;;5048679;28;20056;-62
2022/07/02 09:25:40;;;;;;;0.57;0.38;;;23.40;57.40;;;;;;5047905;28;20083;-62
2022/07/02 09:28:12;;;;;;;0.30;0.30;;;23.40;57.40;;;;;;5048129;28;20087;-62
2022/07/02 09:30:40;;;;;;;0.30;0.20;;;23.40;57.40;;;;;;5047225;28;20076;-62
2022/07/02 09:33:28;;;;;;;0.20;0.20;;;23.50;57.40;;;;;;5042327;28;20045;-62
2022/07/02 09:35:58;;;;;;;0.20;0.20;;;23.50;57.20;;;;;;5033810;28;20175;-62
2022/07/02 09:38:25;;;;;;;0.40;0.40;;;23.50;57.20;;;;;;5045423;28;20049;-62
2022/07/02 09:40:54;;;;;;;0.10;0.10;;;23.50;57.10;;;;;;5046861;28;20124;-62
2022/07/02 09:43:32;;;;;;;0.28;0.28;;;23.60;57.00;;;;;;5047509;28;20053;-62
2022/07/02 09:46:01;;;;;;;0.30;0.30;;;23.60;56.90;;;;;;5047592;28;20128;-62
2022/07/02 09:48:28;;;;;;;0.30;0.30;;;23.60;57.30;;;;;;5041814;28;20138;-62
2022/07/02 09:51:03;;;;;;;0.40;0.40;;;23.60;56.80;;;;;;5046785;28;20071;-62
2022/07/02 09:53:32;;;;;;;0.30;0.30;;;23.60;56.80;;;;;;5034038;28;20041;-62
2022/07/02 09:55:59;;;;;;;0.20;0.20;;;23.60;56.60;;;;;;5046410;28;20049;-62
2022/07/02 09:58:28;;;;;;;0.90;0.50;;;23.60;56.70;;;;;;5047357;28;20113;-62
2022/07/02 10:01:01;;;;;;;0.30;0.30;;;23.60;56.70;;;;;;5045653;28;20300;-62
2022/07/02 10:03:28;;;;;;;0.30;0.30;;;23.60;56.60;;;;;;5047042;28;20529;-62
2022/07/02 10:05:56;;;;;;;0.30;0.30;;;23.60;56.60;;;;;;5046352;28;20041;-62
2022/07/02 10:08:24;;;;;;;0.30;0.30;;;23.60;56.60;;;;;;5046805;28;20556;-63
2022/07/02 10:10:51;;;;;;;0.20;0.20;;;23.60;56.60;;;;;;5047509;28;20048;-63
2022/07/02 10:13:19;;;;;;;0.20;0.20;;;23.60;56.60;;;;;;5046221;28;20547;-62
2022/07/02 10:15:55;;;;;;;0.30;0.30;;;23.60;56.70;;;;;;5047067;28;20133;-62
2022/07/02 10:18:24;;;;;;;0.30;0.30;;;23.60;56.60;;;;;;5047020;28;20049;-62
2022/07/02 10:20:56;;;;;;;0.30;0.30;;;23.50;56.50;;;;;;5045697;28;20394;-63
2022/07/02 10:23:24;;;;;;;0.40;0.32;;;23.50;56.50;;;;;;5046486;28;20146;-62
2022/07/02 10:25:53;;;;;;;0.20;0.20;;;23.50;56.50;;;;;;5047295;28;20048;-63
2022/07/02 10:28:20;;;;;;;0.50;0.40;;;23.50;56.50;;;;;;5045753;28;20077;-62
2022/07/02 10:30:47;;;;;;;0.35;0.30;;;23.50;56.50;;;;;;5047020;28;20084;-62
2022/07/02 10:33:39;;;;;;;0.30;0.30;;;23.50;56.60;;;;;;5045371;28;20304;-62
2022/07/02 10:36:10;;;;;;;0.30;0.30;;;23.50;56.70;;;;;;5046713;28;20211;-62
2022/07/02 10:38:38;;;;;;;0.30;0.30;;;23.40;56.70;;;;;;5046944;28;20491;-62
2022/07/02 10:41:07;;;;;;;0.38;0.38;;;23.50;56.70;;;;;;5047251;28;20205;-62
2022/07/02 10:43:39;;;;;;;0.30;0.30;;;23.40;56.60;;;;;;5046571;28;20077;-62
2022/07/02 10:46:10;;;;;;;0.63;0.35;;;23.40;56.70;;;;;;5047173;28;20072;-62
2022/07/02 10:48:52;;;;;;;0.40;0.40;;;23.40;56.80;;;;;;5045239;28;20541;-62
2022/07/02 10:51:23;;;;;;;0.52;0.52;;;23.40;56.80;;;;;;5046600;28;20041;-62
2022/07/02 10:54:00;;;;;;;0.45;0.45;;;23.40;56.80;;;;;;5046464;28;20506;-62
2022/07/02 10:56:28;;;;;;;0.85;0.60;;;23.40;56.90;;;;;;5046414;28;20053;-62
2022/07/02 10:58:56;;;;;;;0.25;0.25;;;23.30;57.00;;;;;;5045392;28;20049;-62
2022/07/02 11:01:24;;;;;;;0.30;0.30;;;23.30;57.00;;;;;;5046719;28;20101;-62
2022/07/02 11:04:00;;;;;;;0.30;0.30;;;23.30;57.00;;;;;;5046123;28;20045;-62
2022/07/02 11:06:29;;;;;;;0.40;0.40;;;23.30;57.00;;;;;;5045933;28;20076;-62
2022/07/02 11:09:00;;;;;;;0.30;0.30;;;23.30;57.00;;;;;;5044901;28;20136;-61
2022/07/02 11:11:48;;;;;;;0.40;0.40;;;23.30;57.00;;;;;;5046061;28;20129;-62
2022/07/02 11:14:17;;;;;;;0.30;0.30;;;23.30;56.90;;;;;;5044576;28;20091;-62
2022/07/02 11:16:50;;;;;;;0.20;0.20;;;23.30;57.00;;;;;;5046254;28;20081;-62
2022/07/02 11:19:20;;;;;;;0.40;0.40;;;23.30;57.10;;;;;;5044592;28;20057;-62
2022/07/02 11:21:49;;;;;;;0.30;0.30;;;23.30;57.20;;;;;;5046091;28;20071;-61
2022/07/02 11:24:23;;;;;;;0.40;0.40;;;23.30;57.30;;;;;;5045888;28;20049;-62
2022/07/02 11:26:51;;;;;;;0.38;0.38;;;23.30;57.30;;;;;;5045813;28;20478;-61
2022/07/02 11:29:19;;;;;;;0.40;0.40;;;23.30;57.40;;;;;;5045524;28;20072;-62
2022/07/02 11:31:51;;;;;;;0.30;0.30;;;23.30;57.50;;;;;;5045831;28;20140;-62
2022/07/02 11:34:29;;;;;;;0.40;0.40;;;23.30;57.30;;;;;;5045669;28;20059;-62
2022/07/02 11:36:57;;;;;;;0.38;0.38;;;23.40;57.30;;;;;;5046002;28;20053;-62
2022/07/02 11:39:25;;;;;;;0.35;0.35;;;23.30;57.20;;;;;;5045219;28;20094;-61
2022/07/02 11:41:53;;;;;;;0.30;0.30;;;23.40;57.10;;;;;;5045918;28;20099;-62
2022/07/02 11:44:25;;;;;;;0.22;0.22;;;23.40;56.90;;;;;;5044120;28;20057;-62
2022/07/02 11:46:57;;;;;;;0.30;0.30;;;23.40;56.90;;;;;;5044369;28;20044;-62
2022/07/02 11:49:27;;;;;;;0.30;0.30;;;23.40;56.80;;;;;;5044085;28;20556;-62
2022/07/02 11:51:55;;;;;;;0.30;0.30;;;23.40;56.80;;;;;;5045652;28;20115;-62
2022/07/02 11:54:23;;;;;;;0.30;0.30;;;23.30;56.70;;;;;;5045743;28;20103;-62
2022/07/02 11:56:52;;;;;;;0.60;0.30;;;23.40;56.70;;;;;;5045337;28;20349;-62
2022/07/02 11:59:21;;;;;;;0.30;0.30;;;23.40;56.50;;;;;;5044858;28;20052;-62
2022/07/02 12:01:50;;;;;;;0.30;0.30;;;23.30;56.40;;;;;;5045453;28;20124;-62
2022/07/02 12:04:22;;;;;;;0.30;0.30;;;23.30;56.20;;;;;;5045570;28;20057;-62
2022/07/02 12:06:54;;;;;;;0.30;0.30;;;23.30;56.20;;;;;;5045455;28;20080;-61
2022/07/02 12:09:23;;;;;;;0.38;0.38;;;23.30;56.30;;;;;;5044038;28;20072;-62
2022/07/02 12:11:51;;;;;;;0.32;0.30;;;23.30;56.30;;;;;;5045663;28;20045;-62
2022/07/02 12:14:30;;;;;;;0.68;0.38;;;23.30;56.20;;;;;;5044870;28;20458;-62
2022/07/02 12:16:58;;;;;;;0.40;0.40;;;23.20;56.20;;;;;;5044848;28;20516;-62
2022/07/02 12:19:30;;;;;;;0.20;0.20;;;23.20;56.20;;;;;;5044954;28;20080;-62
2022/07/02 12:21:58;;;;;;;0.50;0.50;;;23.20;56.10;;;;;;5045400;28;20102;-62
2022/07/02 12:24:34;;;;;;;0.30;0.30;;;23.20;56.10;;;;;;5044949;28;20049;-62
2022/07/02 12:27:04;;;;;;;0.90;0.40;;;23.20;56.10;;;;;;5044918;28;20044;-62
2022/07/02 12:29:53;;;;;;;0.38;0.38;;;23.20;56.10;;;;;;5044861;28;20579;-62
2022/07/02 12:32:28;;;;;;;0.40;0.40;;;23.20;56.10;;;;;;5044795;28;20577;-62
2022/07/02 12:34:59;;;;;;;0.40;0.40;;;23.20;56.00;;;;;;5043356;28;20110;-62
2022/07/02 12:37:29;;;;;;;0.20;0.20;;;23.20;56.00;;;;;;5044184;28;20049;-62
2022/07/02 12:39:58;;;;;;;0.30;0.30;;;23.20;56.00;;;;;;5044731;28;20055;-62
2022/07/02 12:42:27;;;;;;;0.57;0.50;;;23.10;56.00;;;;;;5045006;28;20059;-62
2022/07/02 12:45:01;;;;;;;0.60;0.60;;;23.20;56.10;;;;;;5044544;28;20080;-62
2022/07/02 12:47:34;;;;;;;0.40;0.40;;;23.10;56.10;;;;;;5045103;28;20084;-62
2022/07/02 12:50:13;;;;;;;0.30;0.30;;;23.10;56.10;;;;;;5026603;28;20542;-62
2022/07/02 12:52:46;;;;;;;0.30;0.30;;;23.10;56.20;;;;;;5044798;28;20481;-62
2022/07/02 12:55:25;;;;;;;0.22;0.22;;;23.10;56.20;;;;;;5044508;28;20584;-62
2022/07/02 12:57:54;;;;;;;0.40;0.40;;;23.10;56.20;;;;;;5043387;28;20452;-61
2022/07/02 13:00:22;;;;;;;0.45;0.45;;;23.10;56.10;;;;;;5044618;28;20375;-62